Observation data for Morton on 06/24/2019      Previous  Date  Next       Current Mesonet Observations  Soil Data  Daily Summary Page  Observations in Plain Language
KMNS 240500Z 28005KT 19/03 A2994 RMK A01 T01880034  RH  037%=      5-min Rain = 0
KMNS 240505Z 28005KT 18/04 A2994 RMK A01 T01830036  RH  038%=      5-min Rain = 0
KMNS 240510Z 28005KT 18/04 A2995 RMK A01 T01840037  RH  038%=      5-min Rain = 0
KMNS 240515Z 29005KT 19/04 A2995 RMK A01 T01870035  RH  037%=      5-min Rain = 0
KMNS 240520Z 28005KT 19/03 A2995 RMK A01 T01900031  RH  035%=      5-min Rain = 0
KMNS 240525Z 28005KT 19/04 A2995 RMK A01 T01870035  RH  037%=      5-min Rain = 0
KMNS 240530Z 29005KT 18/03 A2995 RMK A01 T01830033  RH  037%=      5-min Rain = 0
KMNS 240535Z 29005KT 18/03 A2995 RMK A01 T01830031  RH  037%=      5-min Rain = 0
KMNS 240540Z 30005KT 18/03 A2995 RMK A01 T01750034  RH  040%=      5-min Rain = 0
KMNS 240545Z 29005KT 18/03 A2995 RMK A01 T01750030  RH  039%=      5-min Rain = 0
KMNS 240550Z 29006KT 17/03 A2995 RMK A01 T01740027  RH  038%=      5-min Rain = 0
KMNS 240555Z 29006KT 17/03 A2995 RMK A01 T01720025  RH  038%=      5-min Rain = 0
KMNS 240600Z 29005KT 17/02 A2995 RMK A01 T01690023  RH  038%=      5-min Rain = 0
KMNS 240605Z 28005KT 17/02 A2995 RMK A01 T01730024  RH  038%=      5-min Rain = 0
KMNS 240610Z 29004KT 17/03 A2995 RMK A01 T01730025  RH  038%=      5-min Rain = 0
KMNS 240615Z 29004KT 17/02 A2995 RMK A01 T01730016  RH  035%=      5-min Rain = 0
KMNS 240620Z 30005KT 17/01 A2995 RMK A01 T01740012  RH  034%=      5-min Rain = 0
KMNS 240625Z 30004KT 17/01 A2994 RMK A01 T01740012  RH  034%=      5-min Rain = 0
KMNS 240630Z 30003KT 17/01 A2994 RMK A01 T01730014  RH  035%=      5-min Rain = 0
KMNS 240635Z 30003KT 17/02 A2994 RMK A01 T01720020  RH  037%=      5-min Rain = 0
KMNS 240640Z 31003KT 17/03 A2994 RMK A01 T01670027  RH  040%=      5-min Rain = 0
KMNS 240645Z 31004KT 16/03 A2994 RMK A01 T01600032  RH  043%=      5-min Rain = 0
KMNS 240650Z 31004KT 16/04 A2994 RMK A01 T01580036  RH  045%=      5-min Rain = 0
KMNS 240655Z 31004KT 16/04 A2994 RMK A01 T01570035  RH  045%=      5-min Rain = 0
KMNS 240700Z 32004KT 15/03 A2994 RMK A01 T01520029  RH  044%=      5-min Rain = 0
KMNS 240705Z 34004KT 15/03 A2994 RMK A01 T01500029  RH  045%=      5-min Rain = 0
KMNS 240710Z 33006G11KT 15/02 A2995 RMK A01 T01500024  RH  043%=      5-min Rain = 0
KMNS 240715Z 34008KT 16/02 A2995 RMK A01 T01550020  RH  041%=      5-min Rain = 0
KMNS 240720Z 34010KT 16/01 A2995 RMK A01 T01590012  RH  037%=      5-min Rain = 0
KMNS 240725Z 33008KT 17/00 A2995 RMK A01 T01650000  RH  033%=      5-min Rain = 0
KMNS 240730Z 33008KT 16/00 A2995 RMK A01 T01610002  RH  034%=      5-min Rain = 0
KMNS 240735Z 33005KT 16/00 A2995 RMK A01 T01580004  RH  035%=      5-min Rain = 0
KMNS 240740Z 32004KT 15/00 A2995 RMK A01 T01530004  RH  037%=      5-min Rain = 0
KMNS 240745Z 30004KT 15/00 A2995 RMK A01 T01530004  RH  037%=      5-min Rain = 0
KMNS 240750Z 29003KT 16/00 A2995 RMK A01 T01580003  RH  035%=      5-min Rain = 0
KMNS 240755Z 29004KT 16/00 A2995 RMK A01 T01600000  RH  034%=      5-min Rain = 0
KMNS 240800Z 31005KT 16/M00 A2994 RMK A01 T01571003  RH  034%=      5-min Rain = 0
KMNS 240805Z 31006KT 14/01 A2995 RMK A01 T01430009  RH  041%=      5-min Rain = 0
KMNS 240810Z 31007KT 14/01 A2995 RMK A01 T01420007  RH  040%=      5-min Rain = 0
KMNS 240815Z 31007KT 15/00 A2995 RMK A01 T01450002  RH  038%=      5-min Rain = 0
KMNS 240820Z 31008KT 15/M01 A2995 RMK A01 T01481007  RH  035%=      5-min Rain = 0
KMNS 240825Z 32008KT 15/M02 A2995 RMK A01 T01501015  RH  032%=      5-min Rain = 0
KMNS 240830Z 32007KT 14/M01 A2995 RMK A01 T01441012  RH  034%=      5-min Rain = 0
KMNS 240835Z 35008KT 14/M01 A2996 RMK A01 T01421012  RH  035%=      5-min Rain = 0
KMNS 240840Z 03009KT 15/M02 A2997 RMK A01 T01541015  RH  032%=      5-min Rain = 0
KMNS 240845Z 04008KT 16/M01 A2997 RMK A01 T01581011  RH  032%=      5-min Rain = 0
KMNS 240850Z 03007KT 16/M01 A2997 RMK A01 T01551006  RH  033%=      5-min Rain = 0
KMNS 240855Z 02007KT 15/M00 A2997 RMK A01 T01501002  RH  036%=      5-min Rain = 0
KMNS 240900Z 04007KT 15/00 A2997 RMK A01 T01480002  RH  037%=      5-min Rain = 0
KMNS 240905Z 05007KT 15/00 A2997 RMK A01 T01480003  RH  037%=      5-min Rain = 0
KMNS 240910Z 05008KT 15/01 A2997 RMK A01 T01490006  RH  038%=      5-min Rain = 0
KMNS 240915Z 05008KT 15/01 A2997 RMK A01 T01520010  RH  039%=      5-min Rain = 0
KMNS 240920Z 05009KT 15/02 A2997 RMK A01 T01520019  RH  041%=      5-min Rain = 0
KMNS 240925Z 05008KT 15/03 A2997 RMK A01 T01520027  RH  044%=      5-min Rain = 0
KMNS 240930Z 05008KT 15/04 A2997 RMK A01 T01510035  RH  047%=      5-min Rain = 0
KMNS 240935Z 05007KT 15/05 A2997 RMK A01 T01510045  RH  050%=      5-min Rain = 0
KMNS 240940Z 05008KT 15/06 A2997 RMK A01 T01510057  RH  055%=      5-min Rain = 0
KMNS 240945Z 04008KT 15/07 A2998 RMK A01 T01520067  RH  058%=      5-min Rain = 0
KMNS 240950Z 04009KT 15/08 A2998 RMK A01 T01540078  RH  062%=      5-min Rain = 0
KMNS 240955Z 05009KT 15/08 A2998 RMK A01 T01540083  RH  064%=      5-min Rain = 0
KMNS 241000Z 05008KT 15/09 A2998 RMK A01 T01530086  RH  066%=      5-min Rain = 0
KMNS 241005Z 05008KT 15/09 A2998 RMK A01 T01510088  RH  068%=      5-min Rain = 0
KMNS 241010Z 05011KT 16/11 A2998 RMK A01 T01580107  RH  074%=      5-min Rain = 0
KMNS 241015Z 05010KT 16/11 A2998 RMK A01 T01610114  RH  076%=      5-min Rain = 0
KMNS 241020Z 05009KT 16/11 A2999 RMK A01 T01570110  RH  076%=      5-min Rain = 0
KMNS 241025Z 05009KT 16/11 A2999 RMK A01 T01550110  RH  077%=      5-min Rain = 0
KMNS 241030Z 05009KT 16/11 A2999 RMK A01 T01550114  RH  079%=      5-min Rain = 0
KMNS 241035Z 05008KT 16/12 A2999 RMK A01 T01560117  RH  081%=      5-min Rain = 0
KMNS 241040Z 04009KT 16/12 A2999 RMK A01 T01550118  RH  082%=      5-min Rain = 0
KMNS 241045Z 05009KT 16/12 A2999 RMK A01 T01560121  RH  083%=      5-min Rain = 0
KMNS 241050Z 05009KT 16/13 A2999 RMK A01 T01580125  RH  084%=      5-min Rain = 0
KMNS 241055Z 05009KT 16/13 A30 RMK A01 T01600129  RH  085%=      5-min Rain = 0
KMNS 241100Z 05010KT 16/14 A30 RMK A01 T01640135  RH  086%=      5-min Rain = 0
KMNS 241105Z 05010KT 16/14 A30 RMK A01 T01640136  RH  087%=      5-min Rain = 0
KMNS 241110Z 04010KT 16/14 A30 RMK A01 T01640136  RH  087%=      5-min Rain = 0
KMNS 241115Z 04010KT 16/14 A3001 RMK A01 T01630136  RH  087%=      5-min Rain = 0
KMNS 241120Z 03009KT 16/14 A3001 RMK A01 T01630136  RH  088%=      5-min Rain = 0
KMNS 241125Z 04010KT 16/14 A3001 RMK A01 T01620135  RH  088%=      5-min Rain = 0
KMNS 241130Z 04009KT 16/13 A3001 RMK A01 T01620134  RH  087%=      5-min Rain = 0
KMNS 241135Z 05010KT 16/13 A3001 RMK A01 T01620134  RH  087%=      5-min Rain = 0
KMNS 241140Z 05010KT 16/13 A3001 RMK A01 T01640134  RH  086%=      5-min Rain = 0
KMNS 241145Z 05012KT 17/13 A3001 RMK A01 T01650133  RH  085%=      5-min Rain = 0
KMNS 241150Z 05011KT 17/13 A3001 RMK A01 T01650133  RH  085%=      5-min Rain = 0
KMNS 241155Z 05011KT 17/14 A3002 RMK A01 T01670135  RH  084%=      5-min Rain = 0
KMNS 241200Z 05011KT 17/14 A3002 RMK A01 T01690135  RH  084%=      5-min Rain = 0
KMNS 241205Z 06011KT 17/14 A3002 RMK A01 T01690135  RH  084%=      5-min Rain = 0
KMNS 241210Z 06012KT 17/14 A3002 RMK A01 T01700136  RH  083%=      5-min Rain = 0
KMNS 241215Z 06011KT 17/14 A3002 RMK A01 T01710135  RH  083%=      5-min Rain = 0
KMNS 241220Z 06012KT 17/14 A3003 RMK A01 T01720136  RH  082%=      5-min Rain = 0
KMNS 241225Z 06012KT 17/14 A3003 RMK A01 T01730136  RH  082%=      5-min Rain = 0
KMNS 241230Z 05012KT 17/14 A3003 RMK A01 T01740136  RH  082%=      5-min Rain = 0
KMNS 241235Z 06013KT 18/14 A3003 RMK A01 T01750136  RH  081%=      5-min Rain = 0
KMNS 241240Z 06012KT 18/14 A3004 RMK A01 T01760136  RH  081%=      5-min Rain = 0
KMNS 241245Z 05013KT 18/14 A3004 RMK A01 T01770136  RH  080%=      5-min Rain = 0
KMNS 241250Z 06013KT 18/14 A3004 RMK A01 T01790138  RH  080%=      5-min Rain = 0
KMNS 241255Z 06012KT 18/14 A3004 RMK A01 T01800138  RH  080%=      5-min Rain = 0
KMNS 241300Z 06012KT 18/14 A3004 RMK A01 T01810138  RH  080%=      5-min Rain = 0
KMNS 241305Z 06012KT 18/14 A3004 RMK A01 T01820139  RH  079%=      5-min Rain = 0
KMNS 241310Z 06012KT 18/14 A3005 RMK A01 T01830141  RH  080%=      5-min Rain = 0
KMNS 241315Z 06012KT 19/14 A3004 RMK A01 T01850142  RH  079%=      5-min Rain = 0
KMNS 241320Z 07013KT 19/14 A3005 RMK A01 T01880143  RH  079%=      5-min Rain = 0
KMNS 241325Z 07012KT 19/14 A3005 RMK A01 T01890144  RH  079%=      5-min Rain = 0
KMNS 241330Z 07013KT 19/14 A3005 RMK A01 T01900144  RH  078%=      5-min Rain = 0
KMNS 241335Z 07011KT 19/14 A3005 RMK A01 T01920143  RH  077%=      5-min Rain = 0
KMNS 241340Z 07012KT 19/14 A3005 RMK A01 T01940144  RH  076%=      5-min Rain = 0
KMNS 241345Z 08012KT 19/14 A3006 RMK A01 T01930144  RH  076%=      5-min Rain = 0
KMNS 241350Z 07013KT 19/14 A3006 RMK A01 T01930143  RH  076%=      5-min Rain = 0
KMNS 241355Z 08013KT 20/14 A3006 RMK A01 T01960143  RH  075%=      5-min Rain = 0
KMNS 241400Z 08013KT 20/14 A3006 RMK A01 T01980143  RH  074%=      5-min Rain = 0
KMNS 241405Z 09014KT 20/14 A3006 RMK A01 T01980141  RH  073%=      5-min Rain = 0
KMNS 241410Z 08014KT 20/14 A3006 RMK A01 T01980141  RH  073%=      5-min Rain = 0
KMNS 241415Z 08015KT 20/14 A3006 RMK A01 T01990140  RH  072%=      5-min Rain = 0
KMNS 241420Z 09013G18KT 20/14 A3007 RMK A01 T02000140  RH  071%=      5-min Rain = 0
KMNS 241425Z 08013KT 20/14 A3006 RMK A01 T02000140  RH  071%=      5-min Rain = 0
KMNS 241430Z 08012KT 20/14 A3006 RMK A01 T02030142  RH  071%=      5-min Rain = 0
KMNS 241435Z 08011KT 20/14 A3007 RMK A01 T02000140  RH  071%=      5-min Rain = 0
KMNS 241440Z 08012KT 21/14 A3007 RMK A01 T02080141  RH  069%=      5-min Rain = 0
KMNS 241445Z 08013G18KT 21/14 A3007 RMK A01 T02070140  RH  069%=      5-min Rain = 0
KMNS 241450Z 08012KT 21/14 A3007 RMK A01 T02090139  RH  067%=      5-min Rain = 0
KMNS 241455Z 08014KT 22/14 A3006 RMK A01 T02160137  RH  063%=      5-min Rain = 0
KMNS 241500Z 09011KT 22/14 A3007 RMK A01 T02190136  RH  062%=      5-min Rain = 0
KMNS 241505Z 08011KT 22/14 A3007 RMK A01 T02190135  RH  062%=      5-min Rain = 0
KMNS 241510Z 08010G15KT 22/14 A3007 RMK A01 T02200135  RH  061%=      5-min Rain = 0
KMNS 241515Z 08011KT 22/14 A3006 RMK A01 T02210135  RH  061%=      5-min Rain = 0
KMNS 241520Z 09009G14KT 22/14 A3006 RMK A01 T02200135  RH  061%=      5-min Rain = 0
KMNS 241525Z 08010KT 23/14 A3006 RMK A01 T02260136  RH  059%=      5-min Rain = 0
KMNS 241530Z 07011KT 22/14 A3006 RMK A01 T02240135  RH  059%=      5-min Rain = 0
KMNS 241535Z 09009KT 23/14 A3006 RMK A01 T02260135  RH  059%=      5-min Rain = 0
KMNS 241540Z 07009G14KT 23/14 A3006 RMK A01 T02290135  RH  058%=      5-min Rain = 0
KMNS 241545Z 07008G13KT 23/13 A3006 RMK A01 T02280134  RH  058%=      5-min Rain = 0
KMNS 241550Z 09010KT 23/14 A3006 RMK A01 T02300135  RH  057%=      5-min Rain = 0
KMNS 241555Z 08008KT 23/13 A3006 RMK A01 T02280134  RH  058%=      5-min Rain = 0
KMNS 241600Z 10009G15KT 24/14 A3006 RMK A01 T02350136  RH  056%=      5-min Rain = 0
KMNS 241605Z 10007KT 24/14 A3006 RMK A01 T02370137  RH  056%=      5-min Rain = 0
KMNS 241610Z 10008KT 24/14 A3006 RMK A01 T02400136  RH  054%=      5-min Rain = 0
KMNS 241615Z 08009G14KT 24/14 A3006 RMK A01 T02370135  RH  055%=      5-min Rain = 0
KMNS 241620Z 08009G14KT 24/14 A3006 RMK A01 T02380135  RH  055%=      5-min Rain = 0
KMNS 241625Z 07008KT 24/14 A3006 RMK A01 T02410135  RH  054%=      5-min Rain = 0
KMNS 241630Z 08009G15KT 24/14 A3005 RMK A01 T02430135  RH  053%=      5-min Rain = 0
KMNS 241635Z 08008G14KT 24/14 A3005 RMK A01 T02440136  RH  053%=      5-min Rain = 0
KMNS 241640Z 07010KT 25/13 A3005 RMK A01 T02450134  RH  052%=      5-min Rain = 0
KMNS 241645Z 08008G15KT 25/14 A3005 RMK A01 T02490136  RH  052%=      5-min Rain = 0
KMNS 241650Z 08009G14KT 25/14 A3005 RMK A01 T02480136  RH  052%=      5-min Rain = 0
KMNS 241655Z 08009KT 25/14 A3005 RMK A01 T02510136  RH  051%=      5-min Rain = 0
KMNS 241700Z 08008G15KT 25/14 A3005 RMK A01 T02530135  RH  050%=      5-min Rain = 0
KMNS 241705Z 07008G13KT 26/14 A3005 RMK A01 T02560136  RH  049%=      5-min Rain = 0
KMNS 241710Z 08008KT 26/14 A3005 RMK A01 T02580135  RH  048%=      5-min Rain = 0
KMNS 241715Z 07007KT 26/14 A3005 RMK A01 T02610136  RH  048%=      5-min Rain = 0
KMNS 241720Z 10007KT 26/13 A3005 RMK A01 T02630134  RH  047%=      5-min Rain = 0
KMNS 241725Z 11007KT 27/13 A3005 RMK A01 T02650129  RH  045%=      5-min Rain = 0
KMNS 241730Z 11004KT 26/13 A3005 RMK A01 T02630128  RH  045%=      5-min Rain = 0
KMNS 241735Z 08007G12KT 26/13 A3004 RMK A01 T02630132  RH  046%=      5-min Rain = 0
KMNS 241740Z 12005G10KT 27/13 A3004 RMK A01 T02660128  RH  044%=      5-min Rain = 0
KMNS 241745Z 15005G10KT 27/13 A3004 RMK A01 T02690126  RH  043%=      5-min Rain = 0
KMNS 241750Z 13005G10KT 27/13 A3004 RMK A01 T02710127  RH  043%=      5-min Rain = 0
KMNS 241755Z 09006KT 27/13 A3004 RMK A01 T02710130  RH  043%=      5-min Rain = 0
KMNS 241805Z 09007KT 28/13 A3004 RMK A01 T02760129  RH  042%=      5-min Rain = 0
KMNS 241810Z 13006KT 28/12 A3004 RMK A01 T02750124  RH  041%=      5-min Rain = 0
KMNS 241815Z 14005KT 28/13 A3003 RMK A01 T02790127  RH  040%=      5-min Rain = 0
KMNS 241820Z 13006KT 28/13 A3003 RMK A01 T02800127  RH  040%=      5-min Rain = 0
KMNS 241825Z 10007KT 28/12 A3003 RMK A01 T02800123  RH  040%=      5-min Rain = 0
KMNS 241830Z 10005G10KT 28/13 A3003 RMK A01 T02810126  RH  040%=      5-min Rain = 0
KMNS 241835Z 06005KT 28/12 A3003 RMK A01 T02770122  RH  040%=      5-min Rain = 0
KMNS 241840Z 11005KT 28/12 A3003 RMK A01 T02780121  RH  039%=      5-min Rain = 0
KMNS 241845Z 09002KT 28/12 A3002 RMK A01 T02800123  RH  039%=      5-min Rain = 0
KMNS 241850Z 13006G12KT 28/12 A3002 RMK A01 T02840123  RH  038%=      5-min Rain = 0
KMNS 241855Z 12007KT 29/12 A3002 RMK A01 T02870119  RH  037%=      5-min Rain = 0
KMNS 241900Z 11004KT 28/12 A3002 RMK A01 T02840117  RH  037%=      5-min Rain = 0
KMNS 241905Z 14005KT 29/11 A3002 RMK A01 T02870112  RH  035%=      5-min Rain = 0
KMNS 241910Z 16004G9KT 29/11 A3002 RMK A01 T02890114  RH  035%=      5-min Rain = 0
KMNS 241915Z 17004G9KT 29/11 A3002 RMK A01 T02900108  RH  034%=      5-min Rain = 0
KMNS 241920Z 12007G12KT 29/12 A3001 RMK A01 T02920116  RH  035%=      5-min Rain = 0
KMNS 241925Z 15005G15KT 30/11 A3001 RMK A01 T02960114  RH  034%=      5-min Rain = 0
KMNS 241930Z 05002KT 29/11 A3001 RMK A01 T02900106  RH  033%=      5-min Rain = 0
KMNS 241935Z 01004KT 29/11 A3001 RMK A01 T02890111  RH  034%=      5-min Rain = 0
KMNS 241940Z 08004KT 30/12 A3001 RMK A01 T02970116  RH  034%=      5-min Rain = 0
KMNS 241945Z 11004G10KT 30/12 A30 RMK A01 T02980116  RH  034%=      5-min Rain = 0
KMNS 241950Z 14004KT 30/11 A30 RMK A01 T02960112  RH  033%=      5-min Rain = 0
KMNS 241955Z 15007KT 30/11 A30 RMK A01 T03020105  RH  031%=      5-min Rain = 0
KMNS 242000Z 13008KT 30/09 A2999 RMK A01 T03020092  RH  028%=      5-min Rain = 0
KMNS 242005Z 12004KT 30/09 A2999 RMK A01 T03020089  RH  027%=      5-min Rain = 0
KMNS 242010Z 18003G9KT 30/09 A2999 RMK A01 T03030094  RH  028%=      5-min Rain = 0
KMNS 242015Z 18008KT 31/11 A2999 RMK A01 T03070105  RH  030%=      5-min Rain = 0
KMNS 242020Z 21004G9KT 31/11 A2998 RMK A01 T03080105  RH  030%=      5-min Rain = 0
KMNS 242025Z 16006KT 31/10 A2998 RMK A01 T03090101  RH  029%=      5-min Rain = 0
KMNS 242030Z 15009G15KT 31/10 A2998 RMK A01 T03140104  RH  028%=      5-min Rain = 0
KMNS 242035Z 15007KT 31/10 A2998 RMK A01 T03110103  RH  029%=      5-min Rain = 0
KMNS 242040Z 13005G10KT 31/10 A2998 RMK A01 T03080100  RH  028%=      5-min Rain = 0
KMNS 242045Z 12003G8KT 31/10 A2998 RMK A01 T03080098  RH  028%=      5-min Rain = 0
KMNS 242050Z 08003G9KT 31/10 A2997 RMK A01 T03100097  RH  028%=      5-min Rain = 0
KMNS 242055Z 13008G14KT 32/10 A2997 RMK A01 T03150103  RH  028%=      5-min Rain = 0
KMNS 242100Z 14006KT 31/09 A2997 RMK A01 T03140092  RH  026%=      5-min Rain = 0
KMNS 242105Z 17008KT 32/09 A2997 RMK A01 T03170094  RH  026%=      5-min Rain = 0
KMNS 242110Z 18007G12KT 32/09 A2997 RMK A01 T03150091  RH  026%=      5-min Rain = 0
KMNS 242115Z 22003KT 32/09 A2997 RMK A01 T03150092  RH  026%=      5-min Rain = 0
KMNS 242120Z 17005G10KT 31/09 A2996 RMK A01 T03140088  RH  025%=      5-min Rain = 0
KMNS 242125Z 22007G12KT 32/09 A2996 RMK A01 T03190087  RH  025%=      5-min Rain = 0
KMNS 242130Z 20007G14KT 32/09 A2996 RMK A01 T03190087  RH  024%=      5-min Rain = 0
KMNS 242135Z 16008G16KT 32/08 A2996 RMK A01 T03200081  RH  023%=      5-min Rain = 0
KMNS 242140Z 14003G8KT 32/08 A2996 RMK A01 T03200083  RH  024%=      5-min Rain = 0
KMNS 242145Z 16007KT 32/09 A2996 RMK A01 T03220086  RH  024%=      5-min Rain = 0
KMNS 242150Z 18004G10KT 32/09 A2995 RMK A01 T03230089  RH  024%=      5-min Rain = 0
KMNS 242155Z 18009G15KT 32/09 A2995 RMK A01 T03230090  RH  024%=      5-min Rain = 0
KMNS 242200Z 20004KT 32/09 A2995 RMK A01 T03190086  RH  024%=      5-min Rain = 0
KMNS 242205Z 17007G14KT 32/09 A2995 RMK A01 T03170087  RH  025%=      5-min Rain = 0
KMNS 242210Z 17008KT 31/09 A2995 RMK A01 T03120087  RH  026%=      5-min Rain = 0
KMNS 242215Z 16006KT 32/09 A2994 RMK A01 T03210089  RH  025%=      5-min Rain = 0
KMNS 242220Z 21007KT 32/09 A2994 RMK A01 T03200085  RH  024%=      5-min Rain = 0
KMNS 242225Z 24004KT 32/08 A2994 RMK A01 T03190079  RH  023%=      5-min Rain = 0
KMNS 242230Z 26004KT 32/08 A2994 RMK A01 T03180081  RH  024%=      5-min Rain = 0
KMNS 242235Z 16005G10KT 33/09 A2994 RMK A01 T03250086  RH  024%=      5-min Rain = 0
KMNS 242240Z 19003G8KT 32/08 A2993 RMK A01 T03240084  RH  023%=      5-min Rain = 0
KMNS 242245Z 22003KT 32/07 A2993 RMK A01 T03230074  RH  022%=      5-min Rain = 0
KMNS 242250Z 27006G12KT 33/08 A2993 RMK A01 T03270080  RH  022%=      5-min Rain = 0
KMNS 242255Z 24008KT 32/08 A2993 RMK A01 T03220080  RH  023%=      5-min Rain = 0
KMNS 242300Z 27006KT 32/08 A2992 RMK A01 T03190078  RH  023%=      5-min Rain = 0
KMNS 242305Z 22004G9KT 33/08 A2992 RMK A01 T03250077  RH  022%=      5-min Rain = 0
KMNS 242310Z 23003G8KT 32/07 A2992 RMK A01 T03240070  RH  021%=      5-min Rain = 0
KMNS 242315Z 27007KT 33/07 A2992 RMK A01 T03270069  RH  021%=      5-min Rain = 0
KMNS 242320Z 26006G11KT 32/06 A2991 RMK A01 T03230062  RH  020%=      5-min Rain = 0
KMNS 242325Z 27002KT 33/06 A2991 RMK A01 T03250061  RH  020%=      5-min Rain = 0
KMNS 242330Z 26003KT 32/06 A2991 RMK A01 T03220062  RH  020%=      5-min Rain = 0
KMNS 242335Z 22002KT 32/07 A2991 RMK A01 T03230067  RH  021%=      5-min Rain = 0
KMNS 242340Z 19008KT 33/07 A2991 RMK A01 T03270069  RH  021%=      5-min Rain = 0
KMNS 242345Z 18009KT 32/07 A2991 RMK A01 T03240067  RH  021%=      5-min Rain = 0
KMNS 242350Z 16005KT 32/07 A2991 RMK A01 T03240067  RH  021%=      5-min Rain = 0
KMNS 242355Z 19005KT 33/06 A299 RMK A01 T03250064  RH  020%=      5-min Rain = 0
KMNS 250000Z 20002KT 32/06 A299 RMK A01 T03230056  RH  019%=      5-min Rain = 0
KMNS 250005Z 21003KT 33/06 A299 RMK A01 T03270058  RH  019%=      5-min Rain = 0
KMNS 250010Z 21004KT 33/06 A299 RMK A01 T03250061  RH  020%=      5-min Rain = 0
KMNS 250015Z 14003KT 32/06 A299 RMK A01 T03230059  RH  020%=      5-min Rain = 0
KMNS 250020Z 12002KT 32/06 A299 RMK A01 T03230057  RH  019%=      5-min Rain = 0
KMNS 250025Z 15001KT 33/06 A299 RMK A01 T03260062  RH  020%=      5-min Rain = 0
KMNS 250030Z 13001KT 33/06 A299 RMK A01 T03290063  RH  020%=      5-min Rain = 0
KMNS 250035Z 12001KT 33/06 A299 RMK A01 T03300059  RH  019%=      5-min Rain = 0
KMNS 250040Z 00001KT 33/06 A299 RMK A01 T03290061  RH  019%=      5-min Rain = 0
KMNS 250045Z 35003KT 32/05 A2989 RMK A01 T03230053  RH  019%=      5-min Rain = 0
KMNS 250050Z 35001KT 33/06 A299 RMK A01 T03270057  RH  019%=      5-min Rain = 0
KMNS 250055Z 23003KT 33/06 A299 RMK A01 T03260055  RH  019%=      5-min Rain = 0
KMNS 250100Z 25002KT 32/05 A299 RMK A01 T03200049  RH  019%=      5-min Rain = 0
KMNS 250105Z 27000KT 33/05 A299 RMK A01 T03260048  RH  018%=      5-min Rain = 0
KMNS 250110Z 20000KT 33/04 A299 RMK A01 T03280042  RH  017%=      5-min Rain = 0
KMNS 250115Z 27000KT 33/05 A299 RMK A01 T03290049  RH  018%=      5-min Rain = 0
KMNS 250120Z 14002KT 32/07 A2991 RMK A01 T03200070  RH  022%=      5-min Rain = 0
KMNS 250125Z 16003KT 31/07 A2991 RMK A01 T03120067  RH  022%=      5-min Rain = 0
KMNS 250130Z 16002KT 31/07 A2991 RMK A01 T03100067  RH  022%=      5-min Rain = 0
KMNS 250135Z 14002KT 31/06 A2991 RMK A01 T03070061  RH  022%=      5-min Rain = 0
KMNS 250140Z 12003KT 30/06 A2991 RMK A01 T03030058  RH  022%=      5-min Rain = 0
KMNS 250145Z 11003KT 30/06 A2992 RMK A01 T02960063  RH  024%=      5-min Rain = 0
KMNS 250150Z 10004KT 30/06 A2992 RMK A01 T02980056  RH  022%=      5-min Rain = 0
KMNS 250155Z 09009KT 28/08 A2992 RMK A01 T02840082  RH  029%=      5-min Rain = 0
KMNS 250200Z 10017G24KT 27/12 A2993 RMK A01 T02730123  RH  041%=      5-min Rain = 0
KMNS 250205Z 11021G27KT 26/13 A2993 RMK A01 T02580128  RH  046%=      5-min Rain = 0
KMNS 250210Z 11018G24KT 25/13 A2993 RMK A01 T02540128  RH  047%=      5-min Rain = 0
KMNS 250215Z 11016G22KT 25/13 A2993 RMK A01 T02510129  RH  049%=      5-min Rain = 0
KMNS 250220Z 12015G20KT 25/13 A2993 RMK A01 T02480132  RH  050%=      5-min Rain = 0
KMNS 250225Z 12016G22KT 25/13 A2993 RMK A01 T02470130  RH  050%=      5-min Rain = 0
KMNS 250230Z 12014G19KT 25/13 A2993 RMK A01 T02460127  RH  049%=      5-min Rain = 0
KMNS 250235Z 13017G22KT 25/13 A2993 RMK A01 T02470125  RH  048%=      5-min Rain = 0
KMNS 250240Z 13015KT 25/12 A2993 RMK A01 T02460123  RH  048%=      5-min Rain = 0
KMNS 250245Z 13016G21KT 24/12 A2993 RMK A01 T02440123  RH  049%=      5-min Rain = 0
KMNS 250250Z 13014KT 24/12 A2994 RMK A01 T02440124  RH  049%=      5-min Rain = 0
KMNS 250255Z 14013G20KT 24/13 A2994 RMK A01 T02430126  RH  050%=      5-min Rain = 0
KMNS 250300Z 14014KT 24/13 A2994 RMK A01 T02420128  RH  051%=      5-min Rain = 0
KMNS 250305Z 14013G18KT 24/13 A2994 RMK A01 T02420128  RH  051%=      5-min Rain = 0
KMNS 250310Z 15013G18KT 24/13 A2994 RMK A01 T02420129  RH  051%=      5-min Rain = 0
KMNS 250315Z 15012KT 24/13 A2995 RMK A01 T02410129  RH  052%=      5-min Rain = 0
KMNS 250320Z 15015KT 24/13 A2995 RMK A01 T02410125  RH  050%=      5-min Rain = 0
KMNS 250325Z 15015G20KT 24/12 A2996 RMK A01 T02400120  RH  049%=      5-min Rain = 0
KMNS 250330Z 15015KT 24/12 A2996 RMK A01 T02380115  RH  048%=      5-min Rain = 0
KMNS 250335Z 15013G18KT 24/12 A2996 RMK A01 T02380115  RH  048%=      5-min Rain = 0
KMNS 250340Z 14013G19KT 24/12 A2997 RMK A01 T02370116  RH  048%=      5-min Rain = 0
KMNS 250345Z 14013KT 24/12 A2997 RMK A01 T02350122  RH  051%=      5-min Rain = 0
KMNS 250350Z 14012KT 23/13 A2997 RMK A01 T02330128  RH  054%=      5-min Rain = 0
KMNS 250355Z 14011KT 23/13 A2997 RMK A01 T02320131  RH  055%=      5-min Rain = 0
KMNS 250400Z 14011G16KT 23/14 A2997 RMK A01 T02320136  RH  057%=      5-min Rain = 0
KMNS 250405Z 14012KT 23/14 A2997 RMK A01 T02320139  RH  058%=      5-min Rain = 0
KMNS 250410Z 14011KT 23/14 A2998 RMK A01 T02310142  RH  060%=      5-min Rain = 0
KMNS 250415Z 14011KT 23/15 A2998 RMK A01 T02300145  RH  061%=      5-min Rain = 0
KMNS 250420Z 14011KT 23/15 A2998 RMK A01 T02300148  RH  062%=      5-min Rain = 0
KMNS 250425Z 14012KT 23/15 A2998 RMK A01 T02310152  RH  064%=      5-min Rain = 0
KMNS 250430Z 13012KT 23/16 A2998 RMK A01 T02320156  RH  065%=      5-min Rain = 0
KMNS 250435Z 14011KT 23/16 A2998 RMK A01 T02310158  RH  066%=      5-min Rain = 0
KMNS 250440Z 13011KT 23/16 A2999 RMK A01 T02320161  RH  067%=      5-min Rain = 0
KMNS 250445Z 13012G17KT 23/16 A2999 RMK A01 T02320163  RH  068%=      5-min Rain = 0
KMNS 250450Z 13011G16KT 23/17 A2999 RMK A01 T02320167  RH  070%=      5-min Rain = 0
KMNS 250455Z 13012G17KT 23/17 A2999 RMK A01 T02310169  RH  072%=      5-min Rain = 0

Page generated in 0.009 seconds.